Time;durP1;ratioP1;P1;durP2;ratioP2;P2;SDS_P1;SDS_P2;PMS_P1;PMS_P2;Temp;Humidity;BMP_temperature;BMP_pressure;BME280_temperature;BME280_humidity;BME280_pressure;Samples;Min_cycle;Max_cycle;Signal;HPM_P1;HPM_P2
2022/01/19 00:01:35;;;;;;;30.95;12.55;;;5.50;60.10;;;;;;6298757;28;20365;-72
2022/01/19 00:04:37;;;;;;;28.88;12.30;;;5.40;60.30;;;;;;6318865;28;20047;-73
2022/01/19 00:07:39;;;;;;;31.25;13.48;;;5.40;60.50;;;;;;6286249;28;20460;-73
2022/01/19 00:10:40;;;;;;;28.50;13.20;;;5.40;60.70;;;;;;6321617;28;20086;-74
2022/01/19 00:13:41;;;;;;;27.02;13.05;;;5.30;60.70;;;;;;6296831;28;20361;-72
2022/01/19 00:16:42;;;;;;;34.95;11.57;;;5.30;60.90;;;;;;6321169;28;20028;-73
2022/01/19 00:19:43;;;;;;;32.28;13.30;;;5.30;61.10;;;;;;6303421;28;20495;-73
2022/01/19 00:22:44;;;;;;;33.90;12.00;;;5.20;61.20;;;;;;6285797;28;20040;-73
2022/01/19 00:25:47;;;;;;;33.97;14.80;;;5.20;61.30;;;;;;6303275;28;20112;-72
2022/01/19 00:28:48;;;;;;;28.77;13.23;;;5.20;61.40;;;;;;6320819;28;20032;-72
2022/01/19 00:31:50;;;;;;;31.88;13.02;;;5.10;61.40;;;;;;6320512;28;20081;-72
2022/01/19 00:34:51;;;;;;;31.20;12.80;;;5.20;61.60;;;;;;6302830;28;20459;-72
2022/01/19 00:37:52;;;;;;;27.25;12.52;;;5.10;61.70;;;;;;6318227;28;20020;-72
2022/01/19 00:40:55;;;;;;;27.30;11.25;;;5.10;61.70;;;;;;6302369;28;20081;-72
2022/01/19 00:43:57;;;;;;;35.65;12.40;;;5.10;61.80;;;;;;6319686;28;20668;-72
2022/01/19 00:46:58;;;;;;;28.10;11.93;;;5.10;61.90;;;;;;6302416;28;20554;-72
2022/01/19 00:49:59;;;;;;;28.13;10.02;;;5.20;62.00;;;;;;6302616;28;20113;-73
2022/01/19 00:53:00;;;;;;;38.53;11.93;;;5.10;62.00;;;;;;6285938;28;20039;-73
2022/01/19 00:56:02;;;;;;;37.47;11.48;;;5.20;62.00;;;;;;6320098;28;20039;-72
2022/01/19 00:59:03;;;;;;;30.83;12.02;;;5.10;62.00;;;;;;6302323;28;20035;-73
2022/01/19 01:02:04;;;;;;;29.80;11.13;;;5.10;62.00;;;;;;6302658;28;20089;-72
2022/01/19 01:05:06;;;;;;;24.23;9.65;;;5.10;62.00;;;;;;6302169;28;20487;-72
2022/01/19 01:08:07;;;;;;;27.13;10.98;;;5.10;62.10;;;;;;6302345;28;20067;-72
2022/01/19 01:11:08;;;;;;;31.75;11.50;;;5.10;62.10;;;;;;6320215;28;20032;-73
2022/01/19 01:20:38;;;;;;;32.63;11.40;;;5.00;63.00;;;;;;6302050;28;20035;-72
2022/01/19 01:23:39;;;;;;;32.13;11.80;;;5.00;62.30;;;;;;6301800;28;20133;-71
2022/01/19 01:26:40;;;;;;;23.77;10.80;;;5.30;62.60;;;;;;6295936;28;20430;-74
2022/01/19 01:29:41;;;;;;;26.85;11.77;;;5.00;62.50;;;;;;6317658;28;20024;-72
2022/01/19 01:32:42;;;;;;;23.52;10.90;;;5.00;62.40;;;;;;6301504;28;20047;-72
2022/01/19 01:35:44;;;;;;;30.50;11.02;;;5.00;62.50;;;;;;6318301;28;20036;-72
2022/01/19 01:38:45;;;;;;;26.50;11.70;;;4.90;62.50;;;;;;6315119;28;20024;-72
2022/01/19 01:41:46;;;;;;;31.88;11.20;;;4.90;62.60;;;;;;6284460;28;20149;-72
2022/01/19 01:44:55;;;;;;;23.23;10.27;;;5.00;62.60;;;;;;6284207;28;20456;-72
2022/01/19 01:48:30;;;;;;;28.40;10.10;;;4.90;62.60;;;;;;6284407;28;20032;-72
2022/01/19 01:54:44;;;;;;;30.80;10.95;;;4.90;62.70;;;;;;6300832;28;20016;-72
2022/01/19 01:57:46;;;;;;;31.63;10.80;;;4.90;62.80;;;;;;6300151;28;20032;-72
2022/01/19 02:00:48;;;;;;;27.25;11.05;;;4.90;62.90;;;;;;6300708;28;20107;-72
2022/01/19 02:03:50;;;;;;;30.83;11.52;;;4.80;62.90;;;;;;6300797;28;20122;-73
2022/01/19 02:21:38;;;;;;;29.33;12.70;;;4.70;63.10;;;;;;6300584;28;20039;-72
2022/01/19 02:23:38;;;;;;;29.23;11.20;;;4.70;63.30;;;;;;6316492;28;20055;-73
2022/01/19 02:43:29;;;;;;;25.90;10.90;;;4.60;63.60;;;;;;6178476;28;20050;-71
2022/01/19 02:49:09;;;;;;;22.15;10.32;;;4.60;63.80;;;;;;6174845;28;20113;-72
2022/01/19 02:50:00;;;;;;;25.30;11.07;;;4.60;63.70;;;;;;6190672;28;20403;-71
2022/01/19 02:53:01;;;;;;;31.77;10.48;;;4.60;63.70;;;;;;6174607;28;20046;-71
2022/01/19 02:56:09;;;;;;;27.85;10.80;;;4.50;63.70;;;;;;6173081;28;20037;-71
2022/01/19 02:59:26;;;;;;;25.65;10.85;;;4.50;63.70;;;;;;6150859;28;20030;-72
2022/01/19 03:09:29;;;;;;;23.48;10.40;;;4.40;63.90;;;;;;6140471;28;20671;-72
2022/01/19 03:12:30;;;;;;;21.00;10.60;;;4.40;64.00;;;;;;6137959;28;20093;-71
2022/01/19 03:15:32;;;;;;;20.08;9.15;;;4.40;64.00;;;;;;6147069;28;20094;-72
2022/01/19 03:18:33;;;;;;;19.48;10.05;;;4.80;64.30;;;;;;6180793;28;20034;-71
2022/01/19 03:21:34;;;;;;;23.63;9.95;;;4.40;64.00;;;;;;6239491;28;20065;-72
2022/01/19 03:24:38;;;;;;;26.33;10.68;;;4.40;64.10;;;;;;6257483;28;20087;-72
2022/01/19 03:27:40;;;;;;;27.85;11.10;;;4.40;64.20;;;;;;6232211;28;20037;-72
2022/01/19 03:30:43;;;;;;;21.77;9.70;;;4.40;64.20;;;;;;6241887;28;20084;-72
2022/01/19 03:33:45;;;;;;;25.27;11.13;;;4.40;64.20;;;;;;6246312;28;20553;-72
2022/01/19 03:36:46;;;;;;;29.88;11.20;;;4.40;64.20;;;;;;6231177;28;20029;-72
2022/01/19 03:39:49;;;;;;;23.35;10.82;;;4.50;64.20;;;;;;6266482;28;20457;-71
2022/01/19 03:42:50;;;;;;;21.55;9.85;;;4.50;64.00;;;;;;6303756;28;20063;-71
2022/01/19 03:45:58;;;;;;;26.30;10.95;;;4.50;63.80;;;;;;6304132;28;20032;-73
2022/01/19 03:49:10;;;;;;;27.02;10.43;;;4.60;63.80;;;;;;6287707;28;20032;-73
2022/01/19 03:52:11;;;;;;;26.13;10.85;;;4.60;63.70;;;;;;6320266;28;20117;-72
2022/01/19 03:55:12;;;;;;;25.38;12.27;;;4.60;63.50;;;;;;6287038;28;20499;-72
2022/01/19 03:58:14;;;;;;;25.30;11.35;;;4.60;63.40;;;;;;6320073;28;20020;-72
2022/01/19 04:01:15;;;;;;;29.08;10.63;;;4.60;63.30;;;;;;6304073;28;20039;-72
2022/01/19 04:07:36;;;;;;;27.45;9.98;;;4.60;63.20;;;;;;6320128;28;20361;-73
2022/01/19 04:10:37;;;;;;;18.35;8.90;;;4.60;63.10;;;;;;6321213;28;20028;-72
2022/01/19 04:17:16;;;;;;;22.55;9.32;;;4.60;63.20;;;;;;6218911;28;20088;-73
2022/01/19 04:20:18;;;;;;;20.90;10.40;;;4.50;63.00;;;;;;6219436;28;20498;-72
2022/01/19 04:23:21;;;;;;;23.42;9.70;;;4.50;63.20;;;;;;6219205;28;20395;-71
2022/01/19 04:26:22;;;;;;;27.88;9.98;;;4.50;63.30;;;;;;6213291;28;20048;-72
2022/01/19 04:29:25;;;;;;;28.40;10.30;;;4.50;63.40;;;;;;6226199;28;20466;-72
2022/01/19 04:32:41;;;;;;;22.13;10.00;;;4.40;63.30;;;;;;6242205;28;20041;-72
2022/01/19 04:35:45;;;;;;;26.27;10.43;;;4.50;63.30;;;;;;6242314;28;20033;-72
2022/01/19 05:01:41;;;;;;;21.80;10.40;;;4.30;63.50;;;;;;6302087;28;20596;-72
2022/01/19 05:05:24;;;;;;;26.85;10.38;;;4.30;63.70;;;;;;6319887;28;20031;-72
2022/01/19 05:14:57;;;;;;;25.23;9.43;;;4.30;63.90;;;;;;6319549;28;20027;-72
2022/01/19 05:17:58;;;;;;;24.05;10.20;;;4.30;63.90;;;;;;6278501;28;20028;-72
2022/01/19 05:20:59;;;;;;;26.40;10.00;;;4.30;63.90;;;;;;6284296;28;20085;-71
2022/01/19 05:24:39;;;;;;;18.92;9.48;;;4.30;63.80;;;;;;6242212;28;20045;-71
2022/01/19 05:27:47;;;;;;;23.40;10.00;;;4.30;63.90;;;;;;6224560;28;20048;-71
2022/01/19 05:30:48;;;;;;;25.88;10.70;;;4.30;63.90;;;;;;6258065;28;20029;-72
2022/01/19 05:33:51;;;;;;;19.40;8.30;;;4.30;63.80;;;;;;6241962;28;20060;-72
2022/01/19 05:36:52;;;;;;;22.27;10.15;;;4.30;63.90;;;;;;6258018;28;20041;-72
2022/01/19 05:40:14;;;;;;;23.58;9.90;;;4.30;64.60;;;;;;6257865;28;20092;-72
2022/01/19 05:43:30;;;;;;;27.20;10.13;;;4.30;63.90;;;;;;6223906;28;20752;-72
2022/01/19 05:46:32;;;;;;;20.95;9.48;;;4.30;63.80;;;;;;6224507;28;20591;-72
2022/01/19 05:49:33;;;;;;;18.63;9.88;;;4.40;63.70;;;;;;6257046;28;20620;-73
2022/01/19 05:52:34;;;;;;;28.45;10.88;;;4.30;63.60;;;;;;6240431;28;20037;-73
2022/01/19 05:55:35;;;;;;;27.50;10.40;;;4.30;63.60;;;;;;6291912;28;20051;-73
2022/01/19 05:58:37;;;;;;;26.05;9.13;;;4.30;63.60;;;;;;6300650;28;20036;-72
2022/01/19 06:01:38;;;;;;;24.02;9.55;;;4.30;63.60;;;;;;6277254;28;20078;-73
2022/01/19 06:04:40;;;;;;;29.48;9.88;;;4.30;63.50;;;;;;6283853;28;20425;-72
2022/01/19 06:11:36;;;;;;;23.25;10.45;;;4.30;63.50;;;;;;6198960;28;20030;-72
2022/01/19 06:14:40;;;;;;;22.23;10.60;;;4.30;63.60;;;;;;6198521;28;20033;-72
2022/01/19 06:17:42;;;;;;;26.20;10.43;;;4.20;63.50;;;;;;6198801;28;20466;-72
2022/01/19 06:20:48;;;;;;;18.23;9.68;;;4.20;63.50;;;;;;6215735;28;20414;-72
2022/01/19 06:23:53;;;;;;;22.98;9.98;;;4.20;63.70;;;;;;6199735;28;20560;-72
2022/01/19 06:26:57;;;;;;;25.02;10.38;;;4.20;63.70;;;;;;6183727;28;20046;-73
2022/01/19 06:29:58;;;;;;;24.80;11.80;;;4.20;63.80;;;;;;6215020;28;20117;-73
2022/01/19 06:32:59;;;;;;;22.48;9.82;;;4.20;63.90;;;;;;6215116;28;20537;-74
2022/01/19 06:36:00;;;;;;;25.50;10.20;;;4.20;63.90;;;;;;6196986;28;20052;-72
2022/01/19 06:39:20;;;;;;;29.23;12.00;;;4.30;63.80;;;;;;6210776;28;20030;-71
2022/01/19 06:42:24;;;;;;;22.73;10.52;;;4.10;63.70;;;;;;6196784;28;20026;-72
2022/01/19 06:45:26;;;;;;;25.52;11.13;;;4.10;63.70;;;;;;6266128;28;20044;-73
2022/01/19 06:48:28;;;;;;;23.83;11.10;;;4.10;63.80;;;;;;6249868;28;20437;-72
2022/01/19 06:51:30;;;;;;;29.52;12.18;;;4.10;64.00;;;;;;6292551;28;20170;-72
2022/01/19 06:54:34;;;;;;;19.00;8.52;;;4.10;63.80;;;;;;6295341;28;20035;-73
2022/01/19 06:57:35;;;;;;;16.17;9.30;;;4.10;63.90;;;;;;6298547;28;20066;-73
2022/01/19 07:01:05;;;;;;;19.35;9.70;;;4.00;63.80;;;;;;6212645;28;20037;-72
2022/01/19 07:04:32;;;;;;;29.48;11.88;;;4.00;63.80;;;;;;6212052;28;20045;-72
2022/01/19 07:07:34;;;;;;;22.45;9.27;;;4.00;63.90;;;;;;6214936;28;20371;-74
2022/01/19 07:10:38;;;;;;;25.48;10.48;;;4.00;63.90;;;;;;6192993;28;20038;-73
2022/01/19 07:13:39;;;;;;;19.77;8.90;;;4.20;63.90;;;;;;6214437;28;20058;-72
2022/01/19 07:16:41;;;;;;;21.77;11.13;;;4.10;64.10;;;;;;6214563;28;20037;-73
2022/01/19 07:19:42;;;;;;;26.33;11.45;;;4.10;64.10;;;;;;6214521;28;20446;-72
2022/01/19 07:22:45;;;;;;;20.13;9.88;;;4.20;64.00;;;;;;6214239;28;20050;-72
2022/01/19 07:25:46;;;;;;;29.23;10.95;;;4.10;63.70;;;;;;6214053;28;20483;-72
2022/01/19 07:28:48;;;;;;;24.40;9.75;;;4.20;63.70;;;;;;6213650;28;20030;-72
2022/01/19 07:31:50;;;;;;;18.48;10.32;;;4.20;63.60;;;;;;6214313;28;20045;-72
2022/01/19 07:34:53;;;;;;;20.92;8.93;;;4.10;63.50;;;;;;6216345;28;20734;-72
2022/01/19 07:37:56;;;;;;;26.83;9.95;;;4.10;63.50;;;;;;6263385;28;20457;-72
2022/01/19 07:40:57;;;;;;;20.42;9.68;;;4.20;63.50;;;;;;6297845;28;20032;-72
2022/01/19 07:43:58;;;;;;;41.58;11.07;;;4.20;63.50;;;;;;6280790;28;20032;-73
2022/01/19 07:46:59;;;;;;;29.48;12.13;;;4.20;63.60;;;;;;6316360;28;20039;-73
2022/01/19 07:50:19;;;;;;;23.45;11.32;;;4.20;63.50;;;;;;6301196;28;20040;-73
2022/01/19 07:53:49;;;;;;;28.55;13.38;;;4.20;63.50;;;;;;6285304;28;20032;-73
2022/01/19 07:57:13;;;;;;;37.92;11.57;;;4.20;63.50;;;;;;6313617;28;20097;-72
2022/01/19 08:00:46;;;;;;;25.00;11.15;;;4.20;63.30;;;;;;6298241;28;20047;-74
2022/01/19 08:04:26;;;;;;;24.65;9.65;;;4.40;63.30;;;;;;6203411;28;20042;-72
2022/01/19 08:07:27;;;;;;;29.35;12.30;;;4.20;63.30;;;;;;6197586;28;20057;-73
2022/01/19 08:10:30;;;;;;;38.42;12.05;;;4.20;63.20;;;;;;6192772;28;20038;-73
2022/01/19 08:13:32;;;;;;;29.88;10.38;;;4.20;63.40;;;;;;6197414;28;20546;-72
2022/01/19 08:16:35;;;;;;;32.58;12.60;;;4.20;63.40;;;;;;6202912;28;20387;-72
2022/01/19 08:19:36;;;;;;;26.98;11.10;;;4.20;63.50;;;;;;6197370;28;20117;-72
2022/01/19 08:22:37;;;;;;;29.60;12.00;;;4.20;63.50;;;;;;6197805;28;20122;-73
2022/01/19 08:25:57;;;;;;;36.85;11.13;;;4.30;63.50;;;;;;6195083;28;20120;-72
2022/01/19 08:28:58;;;;;;;29.60;11.35;;;4.40;63.40;;;;;;6201705;28;20133;-72
2022/01/19 08:32:00;;;;;;;32.47;12.30;;;4.40;63.20;;;;;;6211462;28;20033;-72
2022/01/19 08:35:37;;;;;;;25.95;10.90;;;4.50;63.00;;;;;;6292175;28;20032;-72
2022/01/19 08:38:57;;;;;;;35.33;12.93;;;4.50;62.90;;;;;;6315812;28;20467;-72
2022/01/19 08:42:06;;;;;;;29.73;10.43;;;4.50;62.90;;;;;;6319198;28;20574;-72
2022/01/19 08:45:09;;;;;;;29.52;12.63;;;4.50;62.90;;;;;;6301174;28;20059;-72
2022/01/19 08:48:10;;;;;;;35.85;10.73;;;4.70;62.90;;;;;;6302261;28;20056;-73
2022/01/19 08:51:42;;;;;;;34.88;10.85;;;4.70;62.90;;;;;;6301833;28;20678;-73
2022/01/19 08:54:52;;;;;;;32.38;12.88;;;4.70;62.80;;;;;;6318902;28;20369;-73
2022/01/19 08:57:54;;;;;;;30.25;12.30;;;4.80;62.60;;;;;;6318589;28;20545;-72
2022/01/19 09:00:55;;;;;;;33.05;13.43;;;4.90;62.40;;;;;;6319006;28;20025;-72
2022/01/19 09:03:56;;;;;;;25.75;12.82;;;4.90;63.20;;;;;;6319705;28;20256;-72
2022/01/19 09:06:59;;;;;;;41.38;14.65;;;5.00;62.40;;;;;;6319455;28;20031;-72
2022/01/19 09:10:00;;;;;;;50.80;22.45;;;5.10;62.20;;;;;;6301021;28;20036;-72
2022/01/19 09:13:02;;;;;;;36.53;15.23;;;5.30;62.10;;;;;;6301251;28;20536;-73
2022/01/19 09:16:05;;;;;;;41.60;15.30;;;5.40;61.90;;;;;;6300830;28;20107;-73
2022/01/19 09:19:07;;;;;;;56.85;18.83;;;5.40;62.20;;;;;;6300730;28;20077;-71
2022/01/19 09:22:10;;;;;;;27.13;11.82;;;5.50;61.10;;;;;;6318901;28;20024;-72
2022/01/19 09:25:12;;;;;;;34.47;13.73;;;5.60;60.80;;;;;;6315596;28;20035;-72
2022/01/19 09:28:14;;;;;;;31.17;12.90;;;5.60;60.60;;;;;;6318798;28;20082;-73
2022/01/19 09:31:17;;;;;;;28.02;12.02;;;5.60;60.40;;;;;;6319023;28;20024;-74
2022/01/19 09:34:20;;;;;;;26.77;12.45;;;5.60;60.40;;;;;;6318225;28;20024;-74
2022/01/19 09:37:22;;;;;;;27.33;11.68;;;5.70;60.60;;;;;;6299125;28;20028;-72
2022/01/19 09:40:23;;;;;;;31.67;13.07;;;5.80;60.60;;;;;;6296964;28;20067;-72
2022/01/19 09:43:25;;;;;;;32.30;12.55;;;5.90;60.40;;;;;;6317928;28;20514;-73
2022/01/19 09:46:26;;;;;;;33.03;14.13;;;5.90;60.00;;;;;;6300631;28;20303;-73
2022/01/19 09:49:28;;;;;;;30.35;12.52;;;6.00;60.00;;;;;;6284235;28;20059;-72
2022/01/19 09:52:29;;;;;;;27.35;11.32;;;6.10;59.90;;;;;;6311374;28;20108;-72
2022/01/19 09:55:31;;;;;;;29.13;13.38;;;6.10;59.70;;;;;;6300518;28;20035;-72
2022/01/19 09:58:32;;;;;;;28.70;12.40;;;6.20;59.60;;;;;;6300336;28;20024;-73
2022/01/19 10:01:33;;;;;;;32.47;14.77;;;6.20;59.30;;;;;;6299998;28;20096;-73
2022/01/19 10:04:44;;;;;;;33.13;14.55;;;6.20;59.20;;;;;;6317996;28;20038;-74
2022/01/19 10:07:45;;;;;;;40.20;15.40;;;6.30;59.30;;;;;;6299750;28;20028;-73
2022/01/19 10:10:47;;;;;;;38.70;15.82;;;6.40;59.50;;;;;;6299754;28;20036;-72
2022/01/19 10:17:30;;;;;;;22.25;11.55;;;6.80;58.90;;;;;;6316565;28;20587;-73
2022/01/19 10:20:31;;;;;;;31.77;13.98;;;7.10;58.40;;;;;;6299507;28;20040;-71
2022/01/19 10:23:44;;;;;;;27.88;12.75;;;7.40;57.80;;;;;;6299289;28;20040;-73
2022/01/19 10:26:45;;;;;;;29.48;14.20;;;7.50;57.30;;;;;;6282763;28;20111;-72
2022/01/19 10:29:48;;;;;;;27.52;13.43;;;7.70;56.70;;;;;;6299415;28;20032;-73
2022/01/19 10:32:52;;;;;;;41.03;11.90;;;7.90;56.80;;;;;;6299879;28;20024;-74
2022/01/19 10:35:53;;;;;;;33.38;12.50;;;8.10;56.30;;;;;;6282895;28;20030;-72
2022/01/19 10:38:57;;;;;;;46.20;17.90;;;8.20;55.70;;;;;;6299565;28;20461;-72
2022/01/19 10:42:04;;;;;;;42.97;16.17;;;8.30;55.10;;;;;;6317650;28;20028;-72
2022/01/19 10:45:07;;;;;;;32.45;13.15;;;8.30;54.90;;;;;;6299343;28;20603;-72
2022/01/19 10:48:09;;;;;;;33.00;13.05;;;8.50;54.80;;;;;;6315819;28;20032;-72
2022/01/19 10:51:14;;;;;;;33.53;13.77;;;8.60;54.20;;;;;;6316238;28;20031;-73
2022/01/19 10:54:21;;;;;;;34.67;13.68;;;8.70;53.80;;;;;;6317225;28;20613;-72
2022/01/19 10:57:22;;;;;;;33.10;12.63;;;8.80;53.90;;;;;;6282214;28;20035;-72
2022/01/19 11:00:28;;;;;;;30.58;12.77;;;9.10;53.40;;;;;;6316896;28;20516;-74
2022/01/19 11:03:29;;;;;;;31.27;12.43;;;9.20;53.00;;;;;;6282663;28;20128;-74
2022/01/19 11:06:32;;;;;;;37.58;13.10;;;9.50;53.00;;;;;;6298054;28;20028;-73
2022/01/19 11:09:44;;;;;;;35.03;14.25;;;9.80;52.20;;;;;;6277436;28;20112;-73
2022/01/19 11:12:47;;;;;;;40.45;13.50;;;10.10;51.40;;;;;;6316647;28;20028;-72
2022/01/19 11:15:48;;;;;;;41.53;13.52;;;10.40;50.50;;;;;;6316195;28;20365;-73
2022/01/19 11:18:49;;;;;;;31.17;12.35;;;10.70;50.00;;;;;;6300970;28;20518;-73
2022/01/19 11:22:21;;;;;;;49.45;18.75;;;11.00;49.20;;;;;;6292217;28;20038;-72
2022/01/19 11:25:43;;;;;;;34.85;13.65;;;11.40;48.80;;;;;;6286731;28;20092;-72
2022/01/19 11:28:51;;;;;;;32.88;13.52;;;12.00;47.50;;;;;;6290197;28;20073;-72
2022/01/19 11:31:54;;;;;;;41.42;14.80;;;12.30;46.30;;;;;;6288283;28;20426;-73
2022/01/19 11:34:55;;;;;;;44.58;15.60;;;12.60;45.60;;;;;;6287028;28;20028;-72
2022/01/19 11:37:56;;;;;;;36.78;14.15;;;13.00;44.60;;;;;;6286608;28;20023;-73
2022/01/19 11:41:22;;;;;;;30.23;13.15;;;13.40;43.80;;;;;;6305403;28;20070;-72
2022/01/19 11:44:35;;;;;;;35.42;12.40;;;13.80;42.60;;;;;;6303825;28;20093;-72
2022/01/19 11:47:38;;;;;;;31.50;13.27;;;14.00;42.30;;;;;;6304926;28;20020;-73
2022/01/19 11:50:39;;;;;;;24.58;12.02;;;14.30;41.70;;;;;;6302458;28;20024;-73
2022/01/19 11:54:01;;;;;;;25.55;11.68;;;14.50;40.80;;;;;;6302205;28;20031;-71
2022/01/19 11:57:02;;;;;;;28.75;12.00;;;14.90;40.70;;;;;;6286661;28;20028;-73
2022/01/19 12:00:11;;;;;;;26.13;11.88;;;15.40;40.20;;;;;;6300301;28;20032;-73
2022/01/19 12:03:39;;;;;;;62.60;21.92;;;15.80;38.70;;;;;;6303444;28;20020;-74
2022/01/19 12:06:42;;;;;;;32.30;12.75;;;16.30;37.80;;;;;;6303265;28;20111;-72
2022/01/19 12:09:56;;;;;;;25.35;13.60;;;16.20;36.70;;;;;;6315610;28;20036;-73
2022/01/19 12:13:31;;;;;;;28.73;13.32;;;15.40;37.50;;;;;;6303282;28;20066;-72
2022/01/19 12:19:44;;;;;;;25.83;12.77;;;13.80;40.80;;;;;;6321361;28;20023;-72
2022/01/19 12:22:45;;;;;;;28.60;11.70;;;13.30;41.70;;;;;;6302315;28;20044;-73
2022/01/19 12:25:54;;;;;;;26.17;10.77;;;12.80;43.20;;;;;;6320205;28;20386;-71
2022/01/19 12:28:55;;;;;;;25.50;11.48;;;12.40;42.90;;;;;;6318391;28;20671;-73
2022/01/19 12:31:57;;;;;;;28.38;12.15;;;12.10;43.50;;;;;;6302193;28;20493;-72
2022/01/19 12:35:19;;;;;;;29.95;11.15;;;11.90;44.10;;;;;;6301722;28;20032;-72
2022/01/19 12:38:23;;;;;;;26.63;11.48;;;11.60;44.60;;;;;;6297993;28;20418;-73
2022/01/19 12:41:24;;;;;;;23.60;11.20;;;11.40;45.00;;;;;;6301653;28;20024;-72
2022/01/19 12:44:35;;;;;;;31.63;13.90;;;11.30;45.20;;;;;;6317563;28;20107;-74
2022/01/19 12:47:39;;;;;;;32.45;13.00;;;11.20;45.60;;;;;;6301525;28;20020;-72
2022/01/19 12:50:46;;;;;;;35.63;13.82;;;11.20;45.90;;;;;;6319002;28;20060;-72
2022/01/19 12:53:47;;;;;;;27.95;12.35;;;11.10;46.10;;;;;;6301191;28;20024;-74
2022/01/19 12:57:03;;;;;;;29.77;12.52;;;11.10;46.30;;;;;;6299904;28;20031;-72
2022/01/19 13:00:08;;;;;;;27.15;11.85;;;11.00;46.30;;;;;;6301167;28;20038;-74
2022/01/19 13:03:24;;;;;;;22.65;10.93;;;11.00;46.30;;;;;;6295257;28;20039;-74
2022/01/19 13:06:27;;;;;;;24.25;11.48;;;11.00;46.50;;;;;;6319584;28;20027;-72
2022/01/19 13:09:36;;;;;;;25.23;11.18;;;11.00;46.60;;;;;;6312233;28;20020;-72
2022/01/19 13:12:54;;;;;;;24.25;10.13;;;11.00;46.70;;;;;;6318790;28;20028;-72
2022/01/19 13:16:01;;;;;;;26.65;11.15;;;10.90;46.70;;;;;;6291447;28;20747;-71
2022/01/19 13:19:09;;;;;;;28.90;11.80;;;10.90;46.80;;;;;;6301144;28;20036;-73
2022/01/19 13:22:11;;;;;;;32.90;12.60;;;10.90;46.90;;;;;;6318994;28;20136;-73
2022/01/19 13:25:22;;;;;;;33.70;11.20;;;11.00;47.10;;;;;;6282646;28;20698;-72
2022/01/19 13:28:30;;;;;;;28.77;12.10;;;11.00;47.20;;;;;;6284646;28;20036;-73
2022/01/19 13:31:31;;;;;;;25.05;11.15;;;11.00;47.30;;;;;;6301491;28;20445;-73
2022/01/19 13:34:54;;;;;;;25.40;10.15;;;11.00;47.40;;;;;;6319126;28;20028;-72
2022/01/19 13:37:56;;;;;;;33.28;12.00;;;11.10;47.70;;;;;;6292960;28;20052;-73
2022/01/19 13:41:08;;;;;;;26.55;11.30;;;11.10;47.80;;;;;;6319011;28;20096;-73
2022/01/19 13:44:11;;;;;;;34.60;10.40;;;11.10;48.10;;;;;;6293855;28;20032;-72
2022/01/19 13:47:25;;;;;;;21.70;11.00;;;11.20;48.30;;;;;;6316968;28;20036;-73
2022/01/19 13:50:26;;;;;;;33.63;11.75;;;11.20;48.50;;;;;;6284131;28;20035;-72
2022/01/19 13:53:37;;;;;;;25.38;10.05;;;11.30;48.60;;;;;;6300648;28;20735;-72
2022/01/19 13:56:41;;;;;;;28.25;10.93;;;11.40;48.60;;;;;;6310078;28;20452;-72
2022/01/19 13:59:43;;;;;;;23.88;11.25;;;11.50;48.70;;;;;;6282783;28;20032;-72
2022/01/19 14:03:02;;;;;;;33.83;11.40;;;11.60;48.70;;;;;;6318665;28;20024;-73
2022/01/19 14:06:03;;;;;;;27.35;10.93;;;11.70;48.60;;;;;;6318070;28;20055;-72
2022/01/19 14:09:27;;;;;;;28.77;12.00;;;11.80;48.30;;;;;;6311795;28;20035;-72
2022/01/19 14:12:29;;;;;;;30.25;11.63;;;11.80;48.10;;;;;;6314369;28;20024;-73
2022/01/19 14:15:30;;;;;;;39.83;11.90;;;11.90;47.80;;;;;;6282653;28;20043;-72
2022/01/19 14:18:31;;;;;;;28.52;11.85;;;11.90;47.60;;;;;;6282881;28;20579;-72
2022/01/19 14:21:33;;;;;;;26.40;11.73;;;11.90;47.50;;;;;;6298914;28;20039;-73
2022/01/19 14:24:57;;;;;;;23.75;11.07;;;11.80;47.40;;;;;;6281837;28;20126;-72
2022/01/19 14:27:59;;;;;;;36.65;11.57;;;11.80;47.20;;;;;;6299546;28;20059;-72
2022/01/19 14:31:12;;;;;;;24.60;10.80;;;11.80;47.10;;;;;;6293036;28;20028;-72
2022/01/19 14:34:13;;;;;;;24.17;11.00;;;11.80;47.20;;;;;;6281898;28;20025;-73
2022/01/19 14:37:19;;;;;;;26.25;10.35;;;11.80;47.60;;;;;;6316660;28;20012;-73
2022/01/19 14:40:20;;;;;;;24.33;11.30;;;11.70;48.10;;;;;;6313115;28;20387;-74
2022/01/19 14:43:26;;;;;;;39.45;11.90;;;11.70;48.80;;;;;;6316711;28;20028;-73
2022/01/19 14:47:04;;;;;;;28.10;10.88;;;11.70;49.50;;;;;;6298245;28;20024;-74
2022/01/19 14:50:17;;;;;;;27.52;10.93;;;11.60;49.90;;;;;;6315573;28;20034;-72
2022/01/19 14:53:18;;;;;;;24.80;10.93;;;11.50;50.40;;;;;;6281908;28;20142;-71
2022/01/19 14:56:20;;;;;;;28.30;11.90;;;11.40;50.70;;;;;;6298789;28;20023;-72
2022/01/19 14:59:22;;;;;;;28.92;11.90;;;11.30;51.00;;;;;;6317025;28;20158;-72
2022/01/19 15:02:24;;;;;;;23.50;10.55;;;11.20;51.30;;;;;;6256911;28;20025;-72
2022/01/19 15:05:31;;;;;;;30.52;10.15;;;11.10;51.60;;;;;;6298842;28;20058;-72
2022/01/19 15:08:32;;;;;;;24.23;10.93;;;11.00;51.90;;;;;;6307575;28;20051;-73
2022/01/19 15:11:34;;;;;;;36.22;11.90;;;10.90;52.00;;;;;;6267850;28;20158;-76
2022/01/19 15:14:36;;;;;;;26.70;10.93;;;10.80;52.20;;;;;;6297705;28;20036;-73
2022/01/19 15:17:39;;;;;;;31.33;10.90;;;10.70;52.40;;;;;;6316351;28;20095;-72
2022/01/19 15:20:41;;;;;;;28.92;10.60;;;10.60;52.50;;;;;;6315840;28;20034;-71
2022/01/19 15:23:43;;;;;;;34.35;10.38;;;10.50;52.70;;;;;;6275171;28;20127;-73
2022/01/19 15:26:45;;;;;;;22.08;9.52;;;10.40;52.80;;;;;;6316404;28;20664;-72
2022/01/19 15:29:46;;;;;;;30.77;10.23;;;10.40;52.90;;;;;;6281562;28;20048;-73
2022/01/19 15:32:47;;;;;;;25.75;10.25;;;10.30;53.00;;;;;;6298106;28;20036;-72
2022/01/19 15:35:49;;;;;;;20.75;9.05;;;10.30;52.90;;;;;;6285862;28;20128;-71
2022/01/19 15:38:51;;;;;;;23.20;9.27;;;10.30;52.90;;;;;;6317890;28;20099;-72
2022/01/19 15:41:52;;;;;;;22.77;9.00;;;10.20;53.30;;;;;;6299997;28;20039;-72
2022/01/19 15:44:53;;;;;;;23.27;7.70;;;10.20;52.70;;;;;;6287227;28;20059;-74
2022/01/19 15:47:56;;;;;;;22.42;8.63;;;10.20;52.70;;;;;;6303797;28;20066;-72
2022/01/19 15:50:58;;;;;;;28.42;9.68;;;10.20;52.70;;;;;;6303149;28;20024;-72
2022/01/19 15:53:59;;;;;;;24.52;8.40;;;10.10;52.60;;;;;;6280058;28;20035;-74
2022/01/19 15:57:02;;;;;;;18.90;8.07;;;10.10;52.60;;;;;;6284564;28;20515;-72
2022/01/19 16:00:08;;;;;;;24.75;8.77;;;10.10;52.60;;;;;;6301660;28;20028;-73
2022/01/19 16:03:13;;;;;;;17.50;8.65;;;10.00;52.50;;;;;;6320846;28;20527;-72
2022/01/19 16:06:14;;;;;;;25.55;7.88;;;10.10;52.60;;;;;;6314179;28;20466;-72
2022/01/19 16:09:20;;;;;;;22.35;8.23;;;10.10;52.40;;;;;;6302651;28;20038;-71
2022/01/19 16:12:22;;;;;;;16.95;8.10;;;10.10;52.50;;;;;;6320840;28;20081;-72
2022/01/19 16:15:24;;;;;;;21.95;9.07;;;10.10;52.40;;;;;;6303154;28;20031;-72
2022/01/19 16:18:25;;;;;;;19.02;8.30;;;10.10;52.40;;;;;;6286361;28;20035;-72
2022/01/19 16:21:27;;;;;;;21.77;8.15;;;10.10;52.30;;;;;;6320456;28;20670;-71
2022/01/19 16:27:48;;;;;;;20.70;6.75;;;10.10;52.10;;;;;;6298185;28;20035;-74
2022/01/19 16:30:50;;;;;;;22.38;7.65;;;10.00;52.00;;;;;;6304128;28;20024;-74
2022/01/19 16:33:53;;;;;;;13.90;6.40;;;10.10;52.00;;;;;;6302929;28;20333;-72
2022/01/19 16:36:56;;;;;;;23.73;7.78;;;10.10;51.90;;;;;;6302537;28;20020;-73
2022/01/19 16:39:57;;;;;;;17.52;8.80;;;10.10;51.90;;;;;;6299914;28;20028;-72
2022/01/19 16:43:02;;;;;;;17.85;7.78;;;10.10;51.80;;;;;;6302160;28;20424;-73
2022/01/19 16:46:05;;;;;;;18.02;7.55;;;10.10;51.70;;;;;;6301172;28;20035;-72
2022/01/19 16:49:08;;;;;;;16.95;7.07;;;10.10;51.70;;;;;;6285653;28;20088;-72
2022/01/19 16:52:09;;;;;;;15.75;6.10;;;10.10;51.80;;;;;;6319240;28;20627;-72
2022/01/19 16:55:10;;;;;;;23.58;7.68;;;10.10;51.70;;;;;;6284343;28;20035;-72
2022/01/19 16:58:11;;;;;;;14.18;6.63;;;10.10;51.60;;;;;;6284064;28;20028;-73
2022/01/19 17:01:13;;;;;;;18.83;7.00;;;10.20;51.70;;;;;;6300555;28;20036;-72
2022/01/19 17:04:14;;;;;;;21.05;8.50;;;10.20;51.60;;;;;;6300544;28;20570;-72
2022/01/19 17:07:16;;;;;;;16.45;6.97;;;10.20;51.50;;;;;;6302054;28;20028;-72
2022/01/19 17:10:18;;;;;;;18.23;7.72;;;10.20;51.40;;;;;;6281501;28;20024;-73
2022/01/19 17:13:39;;;;;;;19.23;7.80;;;10.20;51.40;;;;;;6301841;28;20099;-73
2022/01/19 17:16:47;;;;;;;15.15;7.15;;;10.20;51.50;;;;;;6289899;28;20024;-73
2022/01/19 17:19:48;;;;;;;21.60;8.02;;;10.20;51.50;;;;;;6306797;28;20108;-73
2022/01/19 17:22:49;;;;;;;20.08;8.25;;;10.20;51.60;;;;;;6290631;28;20121;-73
2022/01/19 17:25:50;;;;;;;20.25;7.65;;;10.20;51.50;;;;;;6280898;28;20024;-71
2022/01/19 17:28:52;;;;;;;17.42;7.15;;;10.20;51.40;;;;;;6291254;28;20661;-73